sensor_id;sensor_type;location;lat;lon;timestamp;temperature;humidity
12922;DHT22;6528;48.086;16.282;2023-12-07T00:01:11;22.30;99.90
12922;DHT22;6528;48.086;16.282;2023-12-07T00:03:39;22.40;99.90
12922;DHT22;6528;48.086;16.282;2023-12-07T00:06:06;22.40;99.90
12922;DHT22;6528;48.086;16.282;2023-12-07T00:08:34;22.40;99.90
12922;DHT22;6528;48.086;16.282;2023-12-07T00:11:03;22.40;99.90
12922;DHT22;6528;48.086;16.282;2023-12-07T00:13:30;22.30;99.90
12922;DHT22;6528;48.086;16.282;2023-12-07T00:15:58;22.40;99.90
12922;DHT22;6528;48.086;16.282;2023-12-07T00:18:26;22.40;1.00
12922;DHT22;6528;48.086;16.282;2023-12-07T00:20:53;22.40;99.90
12922;DHT22;6528;48.086;16.282;2023-12-07T00:23:21;22.30;99.90
12922;DHT22;6528;48.086;16.282;2023-12-07T00:25:49;22.40;99.90
12922;DHT22;6528;48.086;16.282;2023-12-07T00:28:19;22.30;99.90
12922;DHT22;6528;48.086;16.282;2023-12-07T00:30:46;22.40;99.90
12922;DHT22;6528;48.086;16.282;2023-12-07T00:33:14;22.40;99.90
12922;DHT22;6528;48.086;16.282;2023-12-07T00:35:42;22.30;99.90
12922;DHT22;6528;48.086;16.282;2023-12-07T00:38:10;22.40;99.90
12922;DHT22;6528;48.086;16.282;2023-12-07T00:40:37;22.40;99.90
12922;DHT22;6528;48.086;16.282;2023-12-07T00:43:07;22.40;1.00
12922;DHT22;6528;48.086;16.282;2023-12-07T00:45:36;22.40;1.00
12922;DHT22;6528;48.086;16.282;2023-12-07T00:48:04;22.40;99.90
12922;DHT22;6528;48.086;16.282;2023-12-07T00:50:32;22.30;99.90
12922;DHT22;6528;48.086;16.282;2023-12-07T00:53:00;22.40;1.00
12922;DHT22;6528;48.086;16.282;2023-12-07T00:55:28;22.40;99.90
12922;DHT22;6528;48.086;16.282;2023-12-07T00:57:55;22.30;99.90
12922;DHT22;6528;48.086;16.282;2023-12-07T01:00:24;22.40;99.90
12922;DHT22;6528;48.086;16.282;2023-12-07T01:02:52;22.30;99.90
12922;DHT22;6528;48.086;16.282;2023-12-07T01:05:19;22.30;99.90
12922;DHT22;6528;48.086;16.282;2023-12-07T01:07:47;22.30;99.90
12922;DHT22;6528;48.086;16.282;2023-12-07T01:10:14;22.30;99.90
12922;DHT22;6528;48.086;16.282;2023-12-07T01:12:43;22.30;99.90
12922;DHT22;6528;48.086;16.282;2023-12-07T01:15:10;22.30;99.90
12922;DHT22;6528;48.086;16.282;2023-12-07T01:17:39;22.30;99.90
12922;DHT22;6528;48.086;16.282;2023-12-07T01:20:07;22.30;1.00
12922;DHT22;6528;48.086;16.282;2023-12-07T01:22:42;22.30;1.00
12922;DHT22;6528;48.086;16.282;2023-12-07T01:25:10;22.30;1.00
12922;DHT22;6528;48.086;16.282;2023-12-07T01:27:38;22.30;99.90
12922;DHT22;6528;48.086;16.282;2023-12-07T01:30:06;22.30;99.90
12922;DHT22;6528;48.086;16.282;2023-12-07T01:32:34;22.30;99.90
12922;DHT22;6528;48.086;16.282;2023-12-07T01:35:02;22.30;1.00
12922;DHT22;6528;48.086;16.282;2023-12-07T01:37:30;22.30;1.00
12922;DHT22;6528;48.086;16.282;2023-12-07T01:39:57;22.30;1.00
12922;DHT22;6528;48.086;16.282;2023-12-07T01:42:25;22.30;1.00
12922;DHT22;6528;48.086;16.282;2023-12-07T01:44:53;22.30;99.90
12922;DHT22;6528;48.086;16.282;2023-12-07T01:47:20;22.30;99.90
12922;DHT22;6528;48.086;16.282;2023-12-07T01:49:48;22.30;1.00
12922;DHT22;6528;48.086;16.282;2023-12-07T01:52:16;22.30;99.90
12922;DHT22;6528;48.086;16.282;2023-12-07T01:54:44;22.30;99.90
12922;DHT22;6528;48.086;16.282;2023-12-07T01:57:12;22.30;99.90
12922;DHT22;6528;48.086;16.282;2023-12-07T01:59:40;22.30;1.00
12922;DHT22;6528;48.086;16.282;2023-12-07T02:02:08;22.30;1.00
12922;DHT22;6528;48.086;16.282;2023-12-07T02:04:35;22.30;99.90
12922;DHT22;6528;48.086;16.282;2023-12-07T02:07:04;22.30;1.00
12922;DHT22;6528;48.086;16.282;2023-12-07T02:09:32;22.30;1.00
12922;DHT22;6528;48.086;16.282;2023-12-07T02:12:00;22.30;1.00
12922;DHT22;6528;48.086;16.282;2023-12-07T02:14:28;22.30;99.90
12922;DHT22;6528;48.086;16.282;2023-12-07T02:17:38;22.30;99.90
12922;DHT22;6528;48.086;16.282;2023-12-07T02:22:55;22.30;1.00
12922;DHT22;6528;48.086;16.282;2023-12-07T02:25:36;22.30;1.00
12922;DHT22;6528;48.086;16.282;2023-12-07T02:28:05;22.30;99.90
12922;DHT22;6528;48.086;16.282;2023-12-07T02:30:33;22.30;1.00
12922;DHT22;6528;48.086;16.282;2023-12-07T02:33:00;22.30;89.80
12922;DHT22;6528;48.086;16.282;2023-12-07T02:35:28;22.30;1.00
12922;DHT22;6528;48.086;16.282;2023-12-07T02:37:57;22.30;1.00
12922;DHT22;6528;48.086;16.282;2023-12-07T02:40:26;22.30;1.00
12922;DHT22;6528;48.086;16.282;2023-12-07T02:42:56;22.30;1.00
12922;DHT22;6528;48.086;16.282;2023-12-07T02:45:25;22.30;1.00
12922;DHT22;6528;48.086;16.282;2023-12-07T02:47:57;22.30;1.00
12922;DHT22;6528;48.086;16.282;2023-12-07T02:50:26;22.30;1.00
12922;DHT22;6528;48.086;16.282;2023-12-07T02:52:54;22.30;1.00
12922;DHT22;6528;48.086;16.282;2023-12-07T02:55:23;22.30;1.00
12922;DHT22;6528;48.086;16.282;2023-12-07T02:57:51;22.30;1.00
12922;DHT22;6528;48.086;16.282;2023-12-07T03:00:18;22.30;1.00
12922;DHT22;6528;48.086;16.282;2023-12-07T03:02:46;22.30;1.00
12922;DHT22;6528;48.086;16.282;2023-12-07T03:05:15;22.30;99.90
12922;DHT22;6528;48.086;16.282;2023-12-07T03:07:43;22.30;1.00
12922;DHT22;6528;48.086;16.282;2023-12-07T03:10:11;22.30;1.00
12922;DHT22;6528;48.086;16.282;2023-12-07T03:12:39;22.30;1.00
12922;DHT22;6528;48.086;16.282;2023-12-07T03:15:07;22.30;1.00
12922;DHT22;6528;48.086;16.282;2023-12-07T03:17:37;22.30;1.00
12922;DHT22;6528;48.086;16.282;2023-12-07T03:20:05;22.30;99.90
12922;DHT22;6528;48.086;16.282;2023-12-07T03:22:33;22.30;1.00
12922;DHT22;6528;48.086;16.282;2023-12-07T03:25:01;22.30;1.00
12922;DHT22;6528;48.086;16.282;2023-12-07T03:27:29;22.30;1.00
12922;DHT22;6528;48.086;16.282;2023-12-07T03:29:57;22.30;1.00
12922;DHT22;6528;48.086;16.282;2023-12-07T03:32:25;22.30;1.00
12922;DHT22;6528;48.086;16.282;2023-12-07T03:34:53;22.30;1.00
12922;DHT22;6528;48.086;16.282;2023-12-07T03:37:20;22.30;1.00
12922;DHT22;6528;48.086;16.282;2023-12-07T03:39:48;22.30;99.90
12922;DHT22;6528;48.086;16.282;2023-12-07T03:42:17;22.30;1.00
12922;DHT22;6528;48.086;16.282;2023-12-07T03:45:05;22.30;1.00
12922;DHT22;6528;48.086;16.282;2023-12-07T03:47:33;22.30;1.00
12922;DHT22;6528;48.086;16.282;2023-12-07T03:50:01;22.30;99.90
12922;DHT22;6528;48.086;16.282;2023-12-07T03:52:28;22.30;17.00
12922;DHT22;6528;48.086;16.282;2023-12-07T03:54:56;22.30;99.90
12922;DHT22;6528;48.086;16.282;2023-12-07T03:57:23;22.30;1.00
12922;DHT22;6528;48.086;16.282;2023-12-07T03:59:51;22.30;99.90
12922;DHT22;6528;48.086;16.282;2023-12-07T04:02:19;22.30;1.00
12922;DHT22;6528;48.086;16.282;2023-12-07T04:04:48;22.30;99.90
12922;DHT22;6528;48.086;16.282;2023-12-07T04:07:16;22.30;99.90
12922;DHT22;6528;48.086;16.282;2023-12-07T04:09:43;22.30;99.90
12922;DHT22;6528;48.086;16.282;2023-12-07T04:12:13;22.30;1.00
12922;DHT22;6528;48.086;16.282;2023-12-07T04:14:40;22.30;1.00
12922;DHT22;6528;48.086;16.282;2023-12-07T04:17:08;22.30;60.70
12922;DHT22;6528;48.086;16.282;2023-12-07T04:19:36;22.30;99.90
12922;DHT22;6528;48.086;16.282;2023-12-07T04:22:04;22.30;99.90
12922;DHT22;6528;48.086;16.282;2023-12-07T04:24:32;22.30;99.90
12922;DHT22;6528;48.086;16.282;2023-12-07T04:26:59;22.30;99.90
12922;DHT22;6528;48.086;16.282;2023-12-07T04:29:27;22.30;36.40
12922;DHT22;6528;48.086;16.282;2023-12-07T04:31:54;22.30;1.00
12922;DHT22;6528;48.086;16.282;2023-12-07T04:34:22;22.30;1.00
12922;DHT22;6528;48.086;16.282;2023-12-07T04:36:50;22.30;1.00
12922;DHT22;6528;48.086;16.282;2023-12-07T04:39:17;22.30;99.90
12922;DHT22;6528;48.086;16.282;2023-12-07T04:41:45;22.30;1.00
12922;DHT22;6528;48.086;16.282;2023-12-07T04:44:13;22.30;99.90
12922;DHT22;6528;48.086;16.282;2023-12-07T04:46:40;22.30;99.90
12922;DHT22;6528;48.086;16.282;2023-12-07T04:49:09;22.30;1.00
12922;DHT22;6528;48.086;16.282;2023-12-07T04:51:37;22.30;1.00
12922;DHT22;6528;48.086;16.282;2023-12-07T04:54:04;22.30;1.00
12922;DHT22;6528;48.086;16.282;2023-12-07T04:56:45;22.30;1.00
12922;DHT22;6528;48.086;16.282;2023-12-07T04:59:12;22.30;1.00
12922;DHT22;6528;48.086;16.282;2023-12-07T05:01:40;22.30;1.00
12922;DHT22;6528;48.086;16.282;2023-12-07T05:04:08;22.30;31.20
12922;DHT22;6528;48.086;16.282;2023-12-07T05:06:35;22.30;1.00
12922;DHT22;6528;48.086;16.282;2023-12-07T05:09:03;22.30;1.00
12922;DHT22;6528;48.086;16.282;2023-12-07T05:11:31;22.30;1.00
12922;DHT22;6528;48.086;16.282;2023-12-07T05:13:58;22.30;1.00
12922;DHT22;6528;48.086;16.282;2023-12-07T05:16:26;22.30;1.00
12922;DHT22;6528;48.086;16.282;2023-12-07T05:18:53;22.30;99.90
12922;DHT22;6528;48.086;16.282;2023-12-07T05:21:21;22.30;99.90
12922;DHT22;6528;48.086;16.282;2023-12-07T05:23:50;22.30;1.00
12922;DHT22;6528;48.086;16.282;2023-12-07T05:26:18;22.30;1.00
12922;DHT22;6528;48.086;16.282;2023-12-07T05:28:47;22.30;1.00
12922;DHT22;6528;48.086;16.282;2023-12-07T05:31:17;22.30;99.90
12922;DHT22;6528;48.086;16.282;2023-12-07T05:33:45;22.30;99.90
12922;DHT22;6528;48.086;16.282;2023-12-07T05:36:13;22.30;99.90
12922;DHT22;6528;48.086;16.282;2023-12-07T05:38:41;22.30;1.00
12922;DHT22;6528;48.086;16.282;2023-12-07T05:41:10;22.30;99.90
12922;DHT22;6528;48.086;16.282;2023-12-07T05:43:43;22.30;1.00
12922;DHT22;6528;48.086;16.282;2023-12-07T05:46:10;22.30;1.00
12922;DHT22;6528;48.086;16.282;2023-12-07T05:48:38;22.30;1.00
12922;DHT22;6528;48.086;16.282;2023-12-07T05:51:06;22.30;99.90
12922;DHT22;6528;48.086;16.282;2023-12-07T05:53:38;22.30;99.90
12922;DHT22;6528;48.086;16.282;2023-12-07T05:56:06;22.30;1.00
12922;DHT22;6528;48.086;16.282;2023-12-07T05:58:34;22.30;99.90
12922;DHT22;6528;48.086;16.282;2023-12-07T06:01:03;22.30;53.40
12922;DHT22;6528;48.086;16.282;2023-12-07T06:03:31;22.30;1.00
12922;DHT22;6528;48.086;16.282;2023-12-07T06:05:59;22.40;1.00
12922;DHT22;6528;48.086;16.282;2023-12-07T06:08:27;22.40;1.00
12922;DHT22;6528;48.086;16.282;2023-12-07T06:10:55;22.40;1.00
12922;DHT22;6528;48.086;16.282;2023-12-07T06:13:23;22.40;99.90
12922;DHT22;6528;48.086;16.282;2023-12-07T06:15:51;22.40;1.00
12922;DHT22;6528;48.086;16.282;2023-12-07T06:18:19;22.40;1.00
12922;DHT22;6528;48.086;16.282;2023-12-07T06:20:48;22.40;99.90
12922;DHT22;6528;48.086;16.282;2023-12-07T06:23:16;22.40;1.00
12922;DHT22;6528;48.086;16.282;2023-12-07T06:25:43;22.40;52.90
12922;DHT22;6528;48.086;16.282;2023-12-07T06:28:11;22.40;1.00
12922;DHT22;6528;48.086;16.282;2023-12-07T06:30:38;22.40;1.00
12922;DHT22;6528;48.086;16.282;2023-12-07T06:33:06;22.40;1.00
12922;DHT22;6528;48.086;16.282;2023-12-07T06:35:34;22.40;1.00
12922;DHT22;6528;48.086;16.282;2023-12-07T06:38:02;22.40;1.00
12922;DHT22;6528;48.086;16.282;2023-12-07T06:40:29;22.40;99.90
12922;DHT22;6528;48.086;16.282;2023-12-07T06:42:58;22.40;1.00
12922;DHT22;6528;48.086;16.282;2023-12-07T06:45:26;22.40;99.90
12922;DHT22;6528;48.086;16.282;2023-12-07T06:47:54;22.40;1.00
12922;DHT22;6528;48.086;16.282;2023-12-07T06:50:22;22.40;1.00
12922;DHT22;6528;48.086;16.282;2023-12-07T06:52:49;22.40;99.90
12922;DHT22;6528;48.086;16.282;2023-12-07T06:55:17;22.40;1.00
12922;DHT22;6528;48.086;16.282;2023-12-07T06:57:45;22.40;1.00
12922;DHT22;6528;48.086;16.282;2023-12-07T07:00:13;22.40;1.00
12922;DHT22;6528;48.086;16.282;2023-12-07T07:02:40;22.40;1.00
12922;DHT22;6528;48.086;16.282;2023-12-07T07:05:08;22.40;1.00
12922;DHT22;6528;48.086;16.282;2023-12-07T07:07:39;22.40;1.00
12922;DHT22;6528;48.086;16.282;2023-12-07T07:10:06;22.40;1.00
12922;DHT22;6528;48.086;16.282;2023-12-07T07:12:37;22.40;99.90
12922;DHT22;6528;48.086;16.282;2023-12-07T07:15:07;22.40;99.90
12922;DHT22;6528;48.086;16.282;2023-12-07T07:17:36;22.40;1.00
12922;DHT22;6528;48.086;16.282;2023-12-07T07:20:03;22.40;1.00
12922;DHT22;6528;48.086;16.282;2023-12-07T07:22:32;22.40;99.90
12922;DHT22;6528;48.086;16.282;2023-12-07T07:25:01;22.40;1.00
12922;DHT22;6528;48.086;16.282;2023-12-07T07:27:30;22.40;99.90
12922;DHT22;6528;48.086;16.282;2023-12-07T07:29:57;22.40;99.90
12922;DHT22;6528;48.086;16.282;2023-12-07T07:32:25;22.40;1.00
12922;DHT22;6528;48.086;16.282;2023-12-07T07:34:52;22.40;64.10
12922;DHT22;6528;48.086;16.282;2023-12-07T07:37:20;22.40;1.00
12922;DHT22;6528;48.086;16.282;2023-12-07T07:39:48;22.40;99.90
12922;DHT22;6528;48.086;16.282;2023-12-07T07:42:17;22.40;99.90
12922;DHT22;6528;48.086;16.282;2023-12-07T07:44:44;22.40;1.00
12922;DHT22;6528;48.086;16.282;2023-12-07T07:47:12;22.40;1.00
12922;DHT22;6528;48.086;16.282;2023-12-07T07:49:40;22.40;99.90
12922;DHT22;6528;48.086;16.282;2023-12-07T07:52:09;22.40;1.00
12922;DHT22;6528;48.086;16.282;2023-12-07T07:54:37;22.40;1.00
12922;DHT22;6528;48.086;16.282;2023-12-07T07:57:05;22.40;99.90
12922;DHT22;6528;48.086;16.282;2023-12-07T07:59:33;22.40;1.00
12922;DHT22;6528;48.086;16.282;2023-12-07T08:02:01;22.40;1.00
12922;DHT22;6528;48.086;16.282;2023-12-07T08:04:30;22.40;1.00
12922;DHT22;6528;48.086;16.282;2023-12-07T08:06:57;22.40;99.90
12922;DHT22;6528;48.086;16.282;2023-12-07T08:09:25;22.40;1.00
12922;DHT22;6528;48.086;16.282;2023-12-07T08:11:53;22.40;99.90
12922;DHT22;6528;48.086;16.282;2023-12-07T08:14:21;22.40;99.90
12922;DHT22;6528;48.086;16.282;2023-12-07T08:16:48;22.40;1.00
12922;DHT22;6528;48.086;16.282;2023-12-07T08:19:16;22.40;1.00
12922;DHT22;6528;48.086;16.282;2023-12-07T08:21:44;22.40;1.00
12922;DHT22;6528;48.086;16.282;2023-12-07T08:24:11;22.40;99.90
12922;DHT22;6528;48.086;16.282;2023-12-07T08:26:40;22.40;99.90
12922;DHT22;6528;48.086;16.282;2023-12-07T08:29:08;22.40;1.00
12922;DHT22;6528;48.086;16.282;2023-12-07T08:31:36;22.40;99.90
12922;DHT22;6528;48.086;16.282;2023-12-07T08:34:04;22.40;99.90
12922;DHT22;6528;48.086;16.282;2023-12-07T08:36:32;22.40;1.00
12922;DHT22;6528;48.086;16.282;2023-12-07T08:38:59;22.40;1.00
12922;DHT22;6528;48.086;16.282;2023-12-07T08:41:28;22.40;99.90
12922;DHT22;6528;48.086;16.282;2023-12-07T08:43:55;22.40;1.00
12922;DHT22;6528;48.086;16.282;2023-12-07T08:46:23;22.40;1.00
12922;DHT22;6528;48.086;16.282;2023-12-07T08:48:51;22.40;1.00
12922;DHT22;6528;48.086;16.282;2023-12-07T08:51:20;22.40;1.00
12922;DHT22;6528;48.086;16.282;2023-12-07T08:53:48;22.40;1.00
12922;DHT22;6528;48.086;16.282;2023-12-07T08:56:19;22.40;99.90
12922;DHT22;6528;48.086;16.282;2023-12-07T08:58:47;22.40;99.90
12922;DHT22;6528;48.086;16.282;2023-12-07T09:01:15;22.40;1.00
12922;DHT22;6528;48.086;16.282;2023-12-07T09:03:58;22.40;1.00
12922;DHT22;6528;48.086;16.282;2023-12-07T09:06:25;22.40;99.90
12922;DHT22;6528;48.086;16.282;2023-12-07T09:08:53;22.40;99.90
12922;DHT22;6528;48.086;16.282;2023-12-07T09:11:20;22.40;1.00
12922;DHT22;6528;48.086;16.282;2023-12-07T09:13:48;22.40;43.20
12922;DHT22;6528;48.086;16.282;2023-12-07T09:16:16;22.50;99.90
12922;DHT22;6528;48.086;16.282;2023-12-07T09:18:44;22.40;99.90
12922;DHT22;6528;48.086;16.282;2023-12-07T09:21:14;22.40;1.00
12922;DHT22;6528;48.086;16.282;2023-12-07T09:23:43;22.40;1.00
12922;DHT22;6528;48.086;16.282;2023-12-07T09:26:11;22.40;1.00
12922;DHT22;6528;48.086;16.282;2023-12-07T09:28:39;22.40;92.30
12922;DHT22;6528;48.086;16.282;2023-12-07T09:31:07;22.40;99.90
12922;DHT22;6528;48.086;16.282;2023-12-07T09:33:34;22.50;1.00
12922;DHT22;6528;48.086;16.282;2023-12-07T09:36:02;22.40;1.00
12922;DHT22;6528;48.086;16.282;2023-12-07T09:38:36;22.40;99.90
12922;DHT22;6528;48.086;16.282;2023-12-07T09:41:04;22.50;1.00
12922;DHT22;6528;48.086;16.282;2023-12-07T09:43:32;22.50;99.90
12922;DHT22;6528;48.086;16.282;2023-12-07T09:46:00;22.60;1.00
12922;DHT22;6528;48.086;16.282;2023-12-07T09:48:28;22.60;1.00
12922;DHT22;6528;48.086;16.282;2023-12-07T09:50:56;22.70;1.00
12922;DHT22;6528;48.086;16.282;2023-12-07T09:53:25;22.80;1.00
12922;DHT22;6528;48.086;16.282;2023-12-07T09:55:54;22.80;1.00
12922;DHT22;6528;48.086;16.282;2023-12-07T09:58:22;22.90;99.90
12922;DHT22;6528;48.086;16.282;2023-12-07T10:01:04;22.80;1.00
12922;DHT22;6528;48.086;16.282;2023-12-07T10:03:32;22.90;1.00
12922;DHT22;6528;48.086;16.282;2023-12-07T10:06:00;22.80;9.90
12922;DHT22;6528;48.086;16.282;2023-12-07T10:08:31;22.80;1.00
12922;DHT22;6528;48.086;16.282;2023-12-07T10:11:06;22.80;1.00
12922;DHT22;6528;48.086;16.282;2023-12-07T10:13:35;22.90;1.00
12922;DHT22;6528;48.086;16.282;2023-12-07T10:16:06;22.80;1.00
12922;DHT22;6528;48.086;16.282;2023-12-07T10:18:36;22.80;99.90
12922;DHT22;6528;48.086;16.282;2023-12-07T10:21:08;22.80;1.00
12922;DHT22;6528;48.086;16.282;2023-12-07T10:23:40;22.90;1.00
12922;DHT22;6528;48.086;16.282;2023-12-07T10:26:11;22.90;1.00
12922;DHT22;6528;48.086;16.282;2023-12-07T10:28:40;22.90;1.00
12922;DHT22;6528;48.086;16.282;2023-12-07T10:31:10;22.90;1.00
12922;DHT22;6528;48.086;16.282;2023-12-07T10:33:38;22.90;1.00
12922;DHT22;6528;48.086;16.282;2023-12-07T10:36:07;23.00;1.00
12922;DHT22;6528;48.086;16.282;2023-12-07T10:38:34;23.00;1.00
12922;DHT22;6528;48.086;16.282;2023-12-07T10:41:05;23.00;1.00
12922;DHT22;6528;48.086;16.282;2023-12-07T10:43:37;23.00;1.00
12922;DHT22;6528;48.086;16.282;2023-12-07T10:46:07;23.00;1.00
12922;DHT22;6528;48.086;16.282;2023-12-07T10:48:37;23.00;1.00
12922;DHT22;6528;48.086;16.282;2023-12-07T10:51:08;23.00;1.00
12922;DHT22;6528;48.086;16.282;2023-12-07T10:53:41;23.00;1.00
12922;DHT22;6528;48.086;16.282;2023-12-07T10:56:15;23.00;1.00
12922;DHT22;6528;48.086;16.282;2023-12-07T10:58:49;23.00;1.00
12922;DHT22;6528;48.086;16.282;2023-12-07T11:01:18;23.00;1.00
12922;DHT22;6528;48.086;16.282;2023-12-07T11:03:50;23.10;99.90
12922;DHT22;6528;48.086;16.282;2023-12-07T11:06:19;23.00;1.00
12922;DHT22;6528;48.086;16.282;2023-12-07T11:08:59;23.00;1.00
12922;DHT22;6528;48.086;16.282;2023-12-07T11:11:46;23.00;1.00
12922;DHT22;6528;48.086;16.282;2023-12-07T11:14:16;23.00;1.00
12922;DHT22;6528;48.086;16.282;2023-12-07T11:16:45;23.00;1.00
12922;DHT22;6528;48.086;16.282;2023-12-07T11:22:07;23.00;1.00
12922;DHT22;6528;48.086;16.282;2023-12-07T11:24:35;23.00;1.00
12922;DHT22;6528;48.086;16.282;2023-12-07T11:27:04;23.00;1.00
12922;DHT22;6528;48.086;16.282;2023-12-07T11:29:32;23.00;1.00
12922;DHT22;6528;48.086;16.282;2023-12-07T11:32:03;23.00;1.00
12922;DHT22;6528;48.086;16.282;2023-12-07T11:34:43;23.00;1.00
12922;DHT22;6528;48.086;16.282;2023-12-07T11:37:15;23.00;1.00
12922;DHT22;6528;48.086;16.282;2023-12-07T11:39:44;23.00;1.00
12922;DHT22;6528;48.086;16.282;2023-12-07T11:42:18;23.00;1.00
12922;DHT22;6528;48.086;16.282;2023-12-07T11:44:49;23.00;1.00
12922;DHT22;6528;48.086;16.282;2023-12-07T11:47:19;23.00;1.00
12922;DHT22;6528;48.086;16.282;2023-12-07T11:49:48;23.00;1.00
12922;DHT22;6528;48.086;16.282;2023-12-07T11:52:19;23.00;1.00
12922;DHT22;6528;48.086;16.282;2023-12-07T11:54:49;23.00;1.00
12922;DHT22;6528;48.086;16.282;2023-12-07T11:57:17;23.00;1.00
12922;DHT22;6528;48.086;16.282;2023-12-07T11:59:46;23.00;1.00
12922;DHT22;6528;48.086;16.282;2023-12-07T12:02:16;23.00;1.00
12922;DHT22;6528;48.086;16.282;2023-12-07T12:04:44;23.00;1.00
12922;DHT22;6528;48.086;16.282;2023-12-07T12:07:11;22.90;1.00
12922;DHT22;6528;48.086;16.282;2023-12-07T12:09:39;23.00;1.00
12922;DHT22;6528;48.086;16.282;2023-12-07T12:12:08;23.00;1.00
12922;DHT22;6528;48.086;16.282;2023-12-07T12:14:36;23.00;1.00
12922;DHT22;6528;48.086;16.282;2023-12-07T12:17:04;23.00;1.00
12922;DHT22;6528;48.086;16.282;2023-12-07T12:19:32;23.00;1.00
12922;DHT22;6528;48.086;16.282;2023-12-07T12:22:04;23.00;1.00
12922;DHT22;6528;48.086;16.282;2023-12-07T12:24:38;22.90;1.00
12922;DHT22;6528;48.086;16.282;2023-12-07T12:27:07;22.90;1.00
12922;DHT22;6528;48.086;16.282;2023-12-07T12:29:36;22.90;1.00
12922;DHT22;6528;48.086;16.282;2023-12-07T12:32:04;22.90;1.00
12922;DHT22;6528;48.086;16.282;2023-12-07T12:34:35;22.90;1.00
12922;DHT22;6528;48.086;16.282;2023-12-07T12:37:03;22.90;1.00
12922;DHT22;6528;48.086;16.282;2023-12-07T12:39:34;22.90;1.00
12922;DHT22;6528;48.086;16.282;2023-12-07T12:42:03;22.90;1.00
12922;DHT22;6528;48.086;16.282;2023-12-07T12:44:32;22.90;1.00
12922;DHT22;6528;48.086;16.282;2023-12-07T12:47:07;22.90;1.00
12922;DHT22;6528;48.086;16.282;2023-12-07T12:49:40;22.90;1.00
12922;DHT22;6528;48.086;16.282;2023-12-07T12:52:14;22.90;1.00
12922;DHT22;6528;48.086;16.282;2023-12-07T12:54:44;22.90;1.00
12922;DHT22;6528;48.086;16.282;2023-12-07T12:57:12;22.80;1.00
12922;DHT22;6528;48.086;16.282;2023-12-07T12:59:41;22.80;1.00
12922;DHT22;6528;48.086;16.282;2023-12-07T13:02:09;22.90;1.00
12922;DHT22;6528;48.086;16.282;2023-12-07T13:04:37;22.80;1.00
12922;DHT22;6528;48.086;16.282;2023-12-07T13:07:09;22.80;1.00
12922;DHT22;6528;48.086;16.282;2023-12-07T13:09:37;22.80;1.00
12922;DHT22;6528;48.086;16.282;2023-12-07T13:12:05;22.80;1.00
12922;DHT22;6528;48.086;16.282;2023-12-07T13:14:33;22.80;1.00
12922;DHT22;6528;48.086;16.282;2023-12-07T13:17:04;22.80;1.00
12922;DHT22;6528;48.086;16.282;2023-12-07T13:19:31;22.80;99.90
12922;DHT22;6528;48.086;16.282;2023-12-07T13:22:00;22.80;99.90
12922;DHT22;6528;48.086;16.282;2023-12-07T13:24:28;22.70;1.00
12922;DHT22;6528;48.086;16.282;2023-12-07T13:26:58;22.80;1.00
12922;DHT22;6528;48.086;16.282;2023-12-07T13:29:28;22.70;1.00
12922;DHT22;6528;48.086;16.282;2023-12-07T13:32:04;22.70;45.60
12922;DHT22;6528;48.086;16.282;2023-12-07T13:34:32;22.70;1.00
12922;DHT22;6528;48.086;16.282;2023-12-07T13:37:00;22.70;99.90
12922;DHT22;6528;48.086;16.282;2023-12-07T13:39:28;22.70;1.00
12922;DHT22;6528;48.086;16.282;2023-12-07T13:41:59;22.70;1.00
12922;DHT22;6528;48.086;16.282;2023-12-07T13:44:31;22.70;1.00
12922;DHT22;6528;48.086;16.282;2023-12-07T13:47:00;22.70;99.90
12922;DHT22;6528;48.086;16.282;2023-12-07T13:49:28;22.60;1.00
12922;DHT22;6528;48.086;16.282;2023-12-07T13:52:01;22.60;99.90
12922;DHT22;6528;48.086;16.282;2023-12-07T13:54:38;22.60;99.90
12922;DHT22;6528;48.086;16.282;2023-12-07T13:57:21;22.60;1.00
12922;DHT22;6528;48.086;16.282;2023-12-07T13:59:53;22.60;1.00
12922;DHT22;6528;48.086;16.282;2023-12-07T14:02:20;22.60;1.00
12922;DHT22;6528;48.086;16.282;2023-12-07T14:04:49;22.60;1.00
12922;DHT22;6528;48.086;16.282;2023-12-07T14:07:19;22.60;1.00
12922;DHT22;6528;48.086;16.282;2023-12-07T14:09:49;22.60;1.00
12922;DHT22;6528;48.086;16.282;2023-12-07T14:12:26;22.60;1.00
12922;DHT22;6528;48.086;16.282;2023-12-07T14:14:56;22.60;1.00
12922;DHT22;6528;48.086;16.282;2023-12-07T14:17:25;22.60;1.00
12922;DHT22;6528;48.086;16.282;2023-12-07T14:20:04;22.60;1.00
12922;DHT22;6528;48.086;16.282;2023-12-07T14:22:54;22.60;1.00
12922;DHT22;6528;48.086;16.282;2023-12-07T14:25:24;22.50;1.00
12922;DHT22;6528;48.086;16.282;2023-12-07T14:27:52;22.60;1.00
12922;DHT22;6528;48.086;16.282;2023-12-07T14:30:19;22.50;1.00
12922;DHT22;6528;48.086;16.282;2023-12-07T14:32:49;22.50;1.00
12922;DHT22;6528;48.086;16.282;2023-12-07T14:35:20;22.50;99.90
12922;DHT22;6528;48.086;16.282;2023-12-07T14:37:49;22.50;1.00
12922;DHT22;6528;48.086;16.282;2023-12-07T14:40:18;22.50;67.30
12922;DHT22;6528;48.086;16.282;2023-12-07T14:42:46;22.50;1.00
12922;DHT22;6528;48.086;16.282;2023-12-07T14:45:13;22.50;1.00
12922;DHT22;6528;48.086;16.282;2023-12-07T14:47:43;22.50;1.00
12922;DHT22;6528;48.086;16.282;2023-12-07T14:50:11;22.50;1.00
12922;DHT22;6528;48.086;16.282;2023-12-07T14:52:39;22.50;1.00
12922;DHT22;6528;48.086;16.282;2023-12-07T14:55:06;22.50;1.00
12922;DHT22;6528;48.086;16.282;2023-12-07T14:57:35;22.50;1.00
12922;DHT22;6528;48.086;16.282;2023-12-07T15:00:03;22.40;1.00
12922;DHT22;6528;48.086;16.282;2023-12-07T15:02:32;22.40;1.00
12922;DHT22;6528;48.086;16.282;2023-12-07T15:05:01;22.40;1.00
12922;DHT22;6528;48.086;16.282;2023-12-07T15:07:28;22.40;1.00
12922;DHT22;6528;48.086;16.282;2023-12-07T15:09:56;22.40;99.90
12922;DHT22;6528;48.086;16.282;2023-12-07T15:12:25;22.40;1.00
12922;DHT22;6528;48.086;16.282;2023-12-07T15:14:55;22.40;1.00
12922;DHT22;6528;48.086;16.282;2023-12-07T15:17:23;22.40;1.00
12922;DHT22;6528;48.086;16.282;2023-12-07T15:19:51;22.40;1.00
12922;DHT22;6528;48.086;16.282;2023-12-07T15:22:19;22.40;99.90
12922;DHT22;6528;48.086;16.282;2023-12-07T15:24:46;22.40;1.00
12922;DHT22;6528;48.086;16.282;2023-12-07T15:27:14;22.40;1.00
12922;DHT22;6528;48.086;16.282;2023-12-07T15:29:41;22.40;1.00
12922;DHT22;6528;48.086;16.282;2023-12-07T15:32:09;22.40;1.00
12922;DHT22;6528;48.086;16.282;2023-12-07T15:34:37;22.40;1.00
12922;DHT22;6528;48.086;16.282;2023-12-07T15:37:09;22.40;1.00
12922;DHT22;6528;48.086;16.282;2023-12-07T15:39:41;22.40;1.00
12922;DHT22;6528;48.086;16.282;2023-12-07T15:42:11;22.40;1.00
12922;DHT22;6528;48.086;16.282;2023-12-07T15:44:39;22.30;40.10
12922;DHT22;6528;48.086;16.282;2023-12-07T15:47:08;22.40;99.90
12922;DHT22;6528;48.086;16.282;2023-12-07T15:49:36;22.30;1.00
12922;DHT22;6528;48.086;16.282;2023-12-07T15:52:05;22.30;1.00
12922;DHT22;6528;48.086;16.282;2023-12-07T15:54:32;22.40;1.00
12922;DHT22;6528;48.086;16.282;2023-12-07T15:57:07;22.30;1.00
12922;DHT22;6528;48.086;16.282;2023-12-07T15:59:37;22.30;1.00